<?xml version='1.0' encoding='UTF-8'?><gpx version="1.1" creator="JPX - https://github.com/jenetics/jpx" xmlns="http://www.topografix.com/GPX/1/1"><trk><trkseg><trkpt lat="42.067007218039464" lon="13.408272247162651"><ele>784.0</ele><time>2026-04-23T18:21:55.999Z</time></trkpt><trkpt lat="42.067117555155015" lon="13.40828553193933"><ele>784.0</ele><time>2026-04-23T18:22:06.999Z</time></trkpt><trkpt lat="42.06715659157538" lon="13.408215158247277"><ele>784.0</ele><time>2026-04-23T18:22:12.999Z</time></trkpt><trkpt lat="42.06717701505288" lon="13.408132620396172"><ele>784.0</ele><time>2026-04-23T18:22:18.999Z</time></trkpt><trkpt lat="42.067208034370104" lon="13.408043775104593"><ele>784.0</ele><time>2026-04-23T18:22:25.999Z</time></trkpt><trkpt lat="42.06723459435809" lon="13.407958487904754"><ele>784.0</ele><time>2026-04-23T18:22:32.999Z</time></trkpt><trkpt lat="42.06725754201275" lon="13.407873336056156"><ele>784.0</ele><time>2026-04-23T18:22:39.999Z</time></trkpt><trkpt lat="42.06726425329421" lon="13.407775147586765"><ele>784.0</ele><time>2026-04-23T18:22:47Z</time></trkpt><trkpt lat="42.067294915419424" lon="13.407686678384335"><ele>784.0</ele><time>2026-04-23T18:22:56Z</time></trkpt><trkpt lat="42.06731603390692" lon="13.407603213965379"><ele>784.0</ele><time>2026-04-23T18:23:03Z</time></trkpt><trkpt lat="42.067329505432504" lon="13.407511072591667"><ele>784.0</ele><time>2026-04-23T18:23:10Z</time></trkpt><trkpt lat="42.06734737323968" lon="13.407428228227987"><ele>784.0</ele><time>2026-04-23T18:23:18Z</time></trkpt><trkpt lat="42.067367109720244" lon="13.407336767665203"><ele>784.0</ele><time>2026-04-23T18:23:23Z</time></trkpt><trkpt lat="42.0673801962325" lon="13.407253278428252"><ele>784.0</ele><time>2026-04-23T18:23:29Z</time></trkpt><trkpt lat="42.06739964951683" lon="13.407154110043397"><ele>784.0</ele><time>2026-04-23T18:23:34.999Z</time></trkpt><trkpt lat="42.067414985958976" lon="13.407057729320446"><ele>784.0</ele><time>2026-04-23T18:23:40.999Z</time></trkpt><trkpt lat="42.06744050603967" lon="13.406973078308061"><ele>784.0</ele><time>2026-04-23T18:23:46.999Z</time></trkpt><trkpt lat="42.06746363874142" lon="13.406881154283504"><ele>784.0</ele><time>2026-04-23T18:23:53.999Z</time></trkpt><trkpt lat="42.06747826065343" lon="13.406796957198175"><ele>784.0</ele><time>2026-04-23T18:23:58.999Z</time></trkpt><trkpt lat="42.06751523269651" lon="13.406722850110652"><ele>784.0</ele><time>2026-04-23T18:24:04.999Z</time></trkpt><trkpt lat="42.06755518599882" lon="13.406643715594027"><ele>784.0</ele><time>2026-04-23T18:24:12.999Z</time></trkpt><trkpt lat="42.067567975542985" lon="13.406544388550913"><ele>785.5714285714286</ele><time>2026-04-23T18:24:18.999Z</time></trkpt><trkpt lat="42.067619929525556" lon="13.406475091578022"><ele>787.1428571428571</ele><time>2026-04-23T18:24:25.999Z</time></trkpt><trkpt lat="42.06764805228073" lon="13.406391958883555"><ele>788.7142857142858</ele><time>2026-04-23T18:24:31.999Z</time></trkpt><trkpt lat="42.06767831368332" lon="13.40631574794256"><ele>790.2857142857142</ele><time>2026-04-23T18:24:37.999Z</time></trkpt><trkpt lat="42.06770729801561" lon="13.406216580719112"><ele>791.8571428571429</ele><time>2026-04-23T18:24:43.999Z</time></trkpt><trkpt lat="42.06774885433001" lon="13.406146239324473"><ele>793.4285714285714</ele><time>2026-04-23T18:24:49.999Z</time></trkpt><trkpt lat="42.067800313162294" lon="13.40607859062414"><ele>795.0</ele><time>2026-04-23T18:24:57Z</time></trkpt><trkpt lat="42.067867129896214" lon="13.40608138056567"><ele>795.0</ele><time>2026-04-23T18:25:05Z</time></trkpt><trkpt lat="42.067921947094895" lon="13.40612923581893"><ele>795.0</ele><time>2026-04-23T18:25:09Z</time></trkpt><trkpt lat="42.06795154903486" lon="13.406210189896589"><ele>795.0</ele><time>2026-04-23T18:25:15Z</time></trkpt><trkpt lat="42.06798000176946" lon="13.40629292856612"><ele>795.0</ele><time>2026-04-23T18:25:22Z</time></trkpt><trkpt lat="42.06799850940656" lon="13.40639192889779"><ele>795.0</ele><time>2026-04-23T18:25:29Z</time></trkpt><trkpt lat="42.06801617657421" lon="13.406474026237413"><ele>795.0</ele><time>2026-04-23T18:25:36Z</time></trkpt><trkpt lat="42.06803701878471" lon="13.406564791852302"><ele>795.0</ele><time>2026-04-23T18:25:43.999Z</time></trkpt><trkpt lat="42.06805578286656" lon="13.406648528636332"><ele>796.1428571428571</ele><time>2026-04-23T18:25:50.999Z</time></trkpt><trkpt lat="42.06805932323195" lon="13.40674002901919"><ele>797.2857142857143</ele><time>2026-04-23T18:25:56.999Z</time></trkpt><trkpt lat="42.068082925901784" lon="13.40682038061616"><ele>798.4285714285713</ele><time>2026-04-23T18:26:04.999Z</time></trkpt><trkpt lat="42.06813055418087" lon="13.406888111268405"><ele>799.5714285714286</ele><time>2026-04-23T18:26:11.999Z</time></trkpt><trkpt lat="42.06816544125224" lon="13.40696623803813"><ele>800.7142857142857</ele><time>2026-04-23T18:26:18.999Z</time></trkpt><trkpt lat="42.06820033831445" lon="13.407043355484486"><ele>801.8571428571428</ele><time>2026-04-23T18:26:27.999Z</time></trkpt><trkpt lat="42.068230788678946" lon="13.407128151888546"><ele>803.0</ele><time>2026-04-23T18:26:34.999Z</time></trkpt><trkpt lat="42.068262982656876" lon="13.407208984767323"><ele>806.1428571428571</ele><time>2026-04-23T18:26:40.999Z</time></trkpt><trkpt lat="42.06829298445157" lon="13.407288517919005"><ele>809.2857142857142</ele><time>2026-04-23T18:26:47.999Z</time></trkpt><trkpt lat="42.06831128556086" lon="13.40737191592296"><ele>812.4285714285713</ele><time>2026-04-23T18:26:53.999Z</time></trkpt><trkpt lat="42.06833847640173" lon="13.407460819088369"><ele>815.5714285714286</ele><time>2026-04-23T18:27:03Z</time></trkpt><trkpt lat="42.068377185439395" lon="13.40753025157398"><ele>818.7142857142858</ele><time>2026-04-23T18:27:09Z</time></trkpt><trkpt lat="42.06843432911164" lon="13.407586258172886"><ele>821.8571428571428</ele><time>2026-04-23T18:27:15Z</time></trkpt><trkpt lat="42.06848170647055" lon="13.407651130673525"><ele>825.0</ele><time>2026-04-23T18:27:22Z</time></trkpt><trkpt lat="42.0685313264928" lon="13.40771346189171"><ele>825.0</ele><time>2026-04-23T18:27:30Z</time></trkpt><trkpt lat="42.06859117980518" lon="13.40776681146104"><ele>825.0</ele><time>2026-04-23T18:27:37Z</time></trkpt><trkpt lat="42.068650597823535" lon="13.40781228912012"><ele>825.0</ele><time>2026-04-23T18:27:42.999Z</time></trkpt><trkpt lat="42.068703998639414" lon="13.407865167609486"><ele>825.0</ele><time>2026-04-23T18:27:48.999Z</time></trkpt><trkpt lat="42.06876628144553" lon="13.407907327936005"><ele>825.0</ele><time>2026-04-23T18:27:55.999Z</time></trkpt><trkpt lat="42.06882216825922" lon="13.407965341860022"><ele>825.0</ele><time>2026-04-23T18:28:04.999Z</time></trkpt><trkpt lat="42.06887445612105" lon="13.40801943592806"><ele>825.0</ele><time>2026-04-23T18:28:10.999Z</time></trkpt><trkpt lat="42.06893658017979" lon="13.408053888817282"><ele>824.8571428571428</ele><time>2026-04-23T18:28:18.999Z</time></trkpt><trkpt lat="42.06900120348989" lon="13.408098242090727"><ele>824.7142857142858</ele><time>2026-04-23T18:28:25.999Z</time></trkpt><trkpt lat="42.069069365888964" lon="13.408145777326366"><ele>824.5714285714286</ele><time>2026-04-23T18:28:32.999Z</time></trkpt><trkpt lat="42.06913294266794" lon="13.408162336643047"><ele>824.4285714285713</ele><time>2026-04-23T18:28:39.999Z</time></trkpt><trkpt lat="42.06920286418526" lon="13.408193239228053"><ele>824.2857142857142</ele><time>2026-04-23T18:28:47.999Z</time></trkpt><trkpt lat="42.0692677997417" lon="13.408224595382693"><ele>824.1428571428571</ele><time>2026-04-23T18:28:54.999Z</time></trkpt><trkpt lat="42.06933717857429" lon="13.408251489509462"><ele>824.0</ele><time>2026-04-23T18:29:02.999Z</time></trkpt><trkpt lat="42.06940376613241" lon="13.408250519188499"><ele>825.8571428571428</ele><time>2026-04-23T18:29:10Z</time></trkpt><trkpt lat="42.06946534649107" lon="13.408224049888902"><ele>827.7142857142857</ele><time>2026-04-23T18:29:17Z</time></trkpt><trkpt lat="42.069534731077404" lon="13.408212498503776"><ele>829.5714285714286</ele><time>2026-04-23T18:29:54.999Z</time></trkpt><trkpt lat="42.069610189692156" lon="13.408204324547146"><ele>831.4285714285713</ele><time>2026-04-23T18:30:06.999Z</time></trkpt><trkpt lat="42.069676201121766" lon="13.408211244784399"><ele>833.2857142857143</ele><time>2026-04-23T18:30:12.999Z</time></trkpt><trkpt lat="42.069749124311905" lon="13.408218388008551"><ele>835.1428571428571</ele><time>2026-04-23T18:30:19.999Z</time></trkpt><trkpt lat="42.06981382872074" lon="13.408217647781877"><ele>837.0</ele><time>2026-04-23T18:30:24.999Z</time></trkpt><trkpt lat="42.06988470130885" lon="13.408231913815074"><ele>838.7142857142858</ele><time>2026-04-23T18:30:31.999Z</time></trkpt><trkpt lat="42.06994883630321" lon="13.408236337213932"><ele>840.4285714285714</ele><time>2026-04-23T18:30:36.999Z</time></trkpt><trkpt lat="42.0700117143348" lon="13.408241621600583"><ele>842.1428571428571</ele><time>2026-04-23T18:30:42.999Z</time></trkpt><trkpt lat="42.07008156298883" lon="13.408246803205287"><ele>843.8571428571429</ele><time>2026-04-23T18:30:49.999Z</time></trkpt><trkpt lat="42.070146617442056" lon="13.408261410161026"><ele>845.5714285714286</ele><time>2026-04-23T18:30:56.999Z</time></trkpt><trkpt lat="42.07021313918431" lon="13.408268820015781"><ele>847.2857142857143</ele><time>2026-04-23T18:31:04.999Z</time></trkpt><trkpt lat="42.070279682482365" lon="13.408282267480262"><ele>849.0</ele><time>2026-04-23T18:31:13Z</time></trkpt><trkpt lat="42.07035079267512" lon="13.408293558729873"><ele>849.0000000000001</ele><time>2026-04-23T18:31:20Z</time></trkpt><trkpt lat="42.07041627595031" lon="13.408287363707664"><ele>849.0</ele><time>2026-04-23T18:31:27Z</time></trkpt><trkpt lat="42.070487638286856" lon="13.408267233267507"><ele>849.0</ele><time>2026-04-23T18:31:34Z</time></trkpt><trkpt lat="42.07055575224682" lon="13.408273611865887"><ele>849.0</ele><time>2026-04-23T18:31:41Z</time></trkpt><trkpt lat="42.07062815851573" lon="13.408284083846198"><ele>849.0</ele><time>2026-04-23T18:31:47.999Z</time></trkpt><trkpt lat="42.07069282397642" lon="13.408300767254042"><ele>849.0000000000001</ele><time>2026-04-23T18:31:54.999Z</time></trkpt><trkpt lat="42.07076434520683" lon="13.408340646830414"><ele>849.0</ele><time>2026-04-23T18:32:02.999Z</time></trkpt><trkpt lat="42.07082821725841" lon="13.408345537169808"><ele>850.5714285714287</ele><time>2026-04-23T18:32:09.999Z</time></trkpt><trkpt lat="42.07089624020968" lon="13.408330028097229"><ele>852.1428571428571</ele><time>2026-04-23T18:32:17.999Z</time></trkpt><trkpt lat="42.07096267702919" lon="13.408322527846623"><ele>853.7142857142858</ele><time>2026-04-23T18:32:24.999Z</time></trkpt><trkpt lat="42.07103006541256" lon="13.408310007490359"><ele>855.2857142857143</ele><time>2026-04-23T18:32:33.999Z</time></trkpt><trkpt lat="42.071094372834956" lon="13.408313894499983"><ele>856.8571428571429</ele><time>2026-04-23T18:32:41.999Z</time></trkpt><trkpt lat="42.07115968630017" lon="13.408300065411423"><ele>858.4285714285714</ele><time>2026-04-23T18:32:50.999Z</time></trkpt><trkpt lat="42.07122708309128" lon="13.408275268589982"><ele>860.0</ele><time>2026-04-23T18:33:00.999Z</time></trkpt><trkpt lat="42.071293673109885" lon="13.408265776436062"><ele>860.0</ele><time>2026-04-23T18:33:09.999Z</time></trkpt><trkpt lat="42.07137107547147" lon="13.408252654360318"><ele>860.0</ele><time>2026-04-23T18:33:21Z</time></trkpt><trkpt lat="42.07143854194303" lon="13.408232028426776"><ele>860.0</ele><time>2026-04-23T18:33:30Z</time></trkpt><trkpt lat="42.071508074302436" lon="13.408205628789457"><ele>860.0</ele><time>2026-04-23T18:33:58.999Z</time></trkpt><trkpt lat="42.07157480886879" lon="13.408190384828977"><ele>860.0</ele><time>2026-04-23T18:34:08.999Z</time></trkpt><trkpt lat="42.07164172894695" lon="13.40819739617816"><ele>860.0</ele><time>2026-04-23T18:34:16.999Z</time></trkpt><trkpt lat="42.07170541826508" lon="13.408211441756983"><ele>860.0</ele><time>2026-04-23T18:34:24.999Z</time></trkpt><trkpt lat="42.0717707773253" lon="13.408225909819635"><ele>862.1428571428571</ele><time>2026-04-23T18:34:32.999Z</time></trkpt><trkpt lat="42.07183271291278" lon="13.408248598472444"><ele>864.2857142857143</ele><time>2026-04-23T18:34:39.999Z</time></trkpt><trkpt lat="42.07190493565674" lon="13.408263265095835"><ele>866.4285714285714</ele><time>2026-04-23T18:34:47.999Z</time></trkpt><trkpt lat="42.07197434762685" lon="13.408283157084162"><ele>868.5714285714286</ele><time>2026-04-23T18:34:54.999Z</time></trkpt><trkpt lat="42.072044065137476" lon="13.40830158184625"><ele>870.7142857142858</ele><time>2026-04-23T18:35:01.999Z</time></trkpt><trkpt lat="42.07211726033627" lon="13.408309847252927"><ele>872.8571428571429</ele><time>2026-04-23T18:35:08.999Z</time></trkpt><trkpt lat="42.07218193921815" lon="13.408328530996622"><ele>875.0</ele><time>2026-04-23T18:35:20.998Z</time></trkpt><trkpt lat="42.072246671487264" lon="13.408345687220079"><ele>875.0</ele><time>2026-04-23T18:35:29Z</time></trkpt><trkpt lat="42.07231798899603" lon="13.408349409683048"><ele>875.0</ele><time>2026-04-23T18:35:38Z</time></trkpt><trkpt lat="42.072388238143965" lon="13.408370124466991"><ele>875.0</ele><time>2026-04-23T18:35:46Z</time></trkpt><trkpt lat="42.07245298532998" lon="13.408381638840643"><ele>875.0</ele><time>2026-04-23T18:35:52.999Z</time></trkpt><trkpt lat="42.07252370379743" lon="13.408400382789994"><ele>875.0</ele><time>2026-04-23T18:35:59.999Z</time></trkpt><trkpt lat="42.07258780540591" lon="13.40841282329572"><ele>875.0</ele><time>2026-04-23T18:36:06.999Z</time></trkpt><trkpt lat="42.072655102867806" lon="13.408429131741318"><ele>875.0</ele><time>2026-04-23T18:36:12.999Z</time></trkpt><trkpt lat="42.07272596430833" lon="13.408431696748357"><ele>876.2857142857143</ele><time>2026-04-23T18:36:19.999Z</time></trkpt><trkpt lat="42.0727897413426" lon="13.408440188057275"><ele>877.5714285714286</ele><time>2026-04-23T18:36:25.999Z</time></trkpt><trkpt lat="42.07286344491983" lon="13.408435598246573"><ele>878.8571428571429</ele><time>2026-04-23T18:36:33.999Z</time></trkpt><trkpt lat="42.07292778044866" lon="13.40843743003647"><ele>880.1428571428571</ele><time>2026-04-23T18:36:40.999Z</time></trkpt><trkpt lat="42.07299456155627" lon="13.408441296139692"><ele>881.4285714285714</ele><time>2026-04-23T18:36:47.999Z</time></trkpt><trkpt lat="42.07306024727276" lon="13.408430678810715"><ele>882.7142857142858</ele><time>2026-04-23T18:36:53.999Z</time></trkpt><trkpt lat="42.07312209981167" lon="13.408446986241167"><ele>884.0</ele><time>2026-04-23T18:37:00.999Z</time></trkpt><trkpt lat="42.07319443315909" lon="13.40843833433042"><ele>884.0000000000001</ele><time>2026-04-23T18:37:07.999Z</time></trkpt><trkpt lat="42.07326474242976" lon="13.408423330787489"><ele>884.0</ele><time>2026-04-23T18:37:15.999Z</time></trkpt><trkpt lat="42.07333019035575" lon="13.408411560259736"><ele>884.0</ele><time>2026-04-23T18:37:23.998Z</time></trkpt><trkpt lat="42.07339015488562" lon="13.40838393991643"><ele>884.0</ele><time>2026-04-23T18:37:31Z</time></trkpt><trkpt lat="42.0734611017766" lon="13.40837773552424"><ele>884.0</ele><time>2026-04-23T18:37:39Z</time></trkpt><trkpt lat="42.07352611745242" lon="13.408368039977335"><ele>884.0000000000001</ele><time>2026-04-23T18:37:47Z</time></trkpt><trkpt lat="42.073589201998594" lon="13.408384175181272"><ele>884.0</ele><time>2026-04-23T18:37:56.999Z</time></trkpt><trkpt lat="42.073652699184315" lon="13.408342476926292"><ele>885.1428571428572</ele><time>2026-04-23T18:38:06.999Z</time></trkpt><trkpt lat="42.07371628367753" lon="13.408340530521176"><ele>886.2857142857143</ele><time>2026-04-23T18:38:13.999Z</time></trkpt><trkpt lat="42.073783103955435" lon="13.408323568786116"><ele>887.4285714285714</ele><time>2026-04-23T18:38:21.999Z</time></trkpt><trkpt lat="42.073844403385266" lon="13.408304228037853"><ele>888.5714285714287</ele><time>2026-04-23T18:38:28.999Z</time></trkpt><trkpt lat="42.07391357942191" lon="13.408295517417827"><ele>889.7142857142857</ele><time>2026-04-23T18:38:38.999Z</time></trkpt><trkpt lat="42.07398450737003" lon="13.408277373033293"><ele>890.8571428571429</ele><time>2026-04-23T18:38:46.999Z</time></trkpt><trkpt lat="42.07404832184624" lon="13.408274438299813"><ele>892.0</ele><time>2026-04-23T18:38:53.999Z</time></trkpt><trkpt lat="42.07411849399449" lon="13.408277387728866"><ele>894.2857142857142</ele><time>2026-04-23T18:39:01.999Z</time></trkpt><trkpt lat="42.07419058423094" lon="13.408263553159545"><ele>896.5714285714286</ele><time>2026-04-23T18:39:08.999Z</time></trkpt><trkpt lat="42.07425689448124" lon="13.408268236292518"><ele>898.8571428571429</ele><time>2026-04-23T18:39:17.998Z</time></trkpt><trkpt lat="42.07432321984145" lon="13.408275785622786"><ele>901.1428571428571</ele><time>2026-04-23T18:39:25.998Z</time></trkpt><trkpt lat="42.074391906670655" lon="13.408304139977256"><ele>903.4285714285716</ele><time>2026-04-23T18:39:34Z</time></trkpt><trkpt lat="42.074454128292906" lon="13.408325367562579"><ele>905.7142857142858</ele><time>2026-04-23T18:39:43Z</time></trkpt><trkpt lat="42.07451681620003" lon="13.408355520874665"><ele>908.0</ele><time>2026-04-23T18:39:51.999Z</time></trkpt><trkpt lat="42.074577687125945" lon="13.408384600517692"><ele>908.0</ele><time>2026-04-23T18:40:00.999Z</time></trkpt><trkpt lat="42.07464299483062" lon="13.408398652422665"><ele>908.0000000000001</ele><time>2026-04-23T18:40:09.999Z</time></trkpt><trkpt lat="42.074710350948486" lon="13.408407299478435"><ele>908.0</ele><time>2026-04-23T18:40:19.999Z</time></trkpt><trkpt lat="42.07477729585867" lon="13.40841625557529"><ele>908.0</ele><time>2026-04-23T18:40:27.999Z</time></trkpt><trkpt lat="42.07484613623386" lon="13.408425385182401"><ele>908.0000000000001</ele><time>2026-04-23T18:40:35.999Z</time></trkpt><trkpt lat="42.07490973250691" lon="13.408411647954182"><ele>908.0</ele><time>2026-04-23T18:40:43.999Z</time></trkpt><trkpt lat="42.07497990613677" lon="13.408393471686141"><ele>908.0</ele><time>2026-04-23T18:40:53.999Z</time></trkpt><trkpt lat="42.07504513244625" lon="13.408388022666946"><ele>910.1428571428572</ele><time>2026-04-23T18:41:13.999Z</time></trkpt><trkpt lat="42.07511308478076" lon="13.408384085099321"><ele>912.2857142857144</ele><time>2026-04-23T18:41:21.998Z</time></trkpt><trkpt lat="42.0751769694182" lon="13.408378952845682"><ele>914.4285714285714</ele><time>2026-04-23T18:41:28.998Z</time></trkpt><trkpt lat="42.07524485056983" lon="13.408371715286927"><ele>916.5714285714287</ele><time>2026-04-23T18:41:37Z</time></trkpt><trkpt lat="42.07530931114962" lon="13.40836434168266"><ele>918.7142857142858</ele><time>2026-04-23T18:41:45Z</time></trkpt><trkpt lat="42.07537266353327" lon="13.408403101178033"><ele>920.8571428571429</ele><time>2026-04-23T18:42:03.999Z</time></trkpt><trkpt lat="42.07544297420976" lon="13.408426334531823"><ele>923.0</ele><time>2026-04-23T18:42:17.999Z</time></trkpt><trkpt lat="42.07550992610786" lon="13.408456889214742"><ele>923.0</ele><time>2026-04-23T18:42:26.999Z</time></trkpt><trkpt lat="42.075567241010624" lon="13.408498775074753"><ele>923.0</ele><time>2026-04-23T18:42:33.999Z</time></trkpt><trkpt lat="42.075632036736245" lon="13.40851759874057"><ele>923.0</ele><time>2026-04-23T18:42:41.999Z</time></trkpt><trkpt lat="42.07569155539458" lon="13.408546819823382"><ele>923.0</ele><time>2026-04-23T18:42:49.999Z</time></trkpt><trkpt lat="42.07575423421845" lon="13.408588461206215"><ele>923.0</ele><time>2026-04-23T18:42:57.999Z</time></trkpt><trkpt lat="42.075814059006234" lon="13.408623968472364"><ele>923.0</ele><time>2026-04-23T18:43:05.999Z</time></trkpt><trkpt lat="42.07587636512232" lon="13.40864687455289"><ele>923.0</ele><time>2026-04-23T18:43:14.999Z</time></trkpt><trkpt lat="42.07593896850735" lon="13.40865696346618"><ele>924.2857142857142</ele><time>2026-04-23T18:43:20.999Z</time></trkpt><trkpt lat="42.07600625884627" lon="13.408679139212195"><ele>925.5714285714287</ele><time>2026-04-23T18:43:39.998Z</time></trkpt><trkpt lat="42.07607050997986" lon="13.408696461147386"><ele>926.8571428571429</ele><time>2026-04-23T18:43:47Z</time></trkpt><trkpt lat="42.07613460581328" lon="13.408695417965589"><ele>928.1428571428571</ele><time>2026-04-23T18:43:53.999Z</time></trkpt><trkpt lat="42.07620593464477" lon="13.40871107694392"><ele>929.4285714285713</ele><time>2026-04-23T18:44:01.999Z</time></trkpt><trkpt lat="42.076279361247046" lon="13.408721316371834"><ele>930.7142857142858</ele><time>2026-04-23T18:44:10.999Z</time></trkpt><trkpt lat="42.07634920082947" lon="13.408728893315471"><ele>932.0</ele><time>2026-04-23T18:44:18.999Z</time></trkpt><trkpt lat="42.07641864262874" lon="13.408745924229171"><ele>932.0</ele><time>2026-04-23T18:44:26.999Z</time></trkpt><trkpt lat="42.07648724433481" lon="13.408769412443098"><ele>932.0</ele><time>2026-04-23T18:44:34.999Z</time></trkpt><trkpt lat="42.07655147931342" lon="13.408790256231287"><ele>932.0</ele><time>2026-04-23T18:44:40.999Z</time></trkpt><trkpt lat="42.07661804714639" lon="13.408800409528652"><ele>932.0</ele><time>2026-04-23T18:44:47.999Z</time></trkpt><trkpt lat="42.07668347465711" lon="13.408817231475512"><ele>932.0</ele><time>2026-04-23T18:44:53.999Z</time></trkpt><trkpt lat="42.076749815406686" lon="13.408839677826428"><ele>932.0</ele><time>2026-04-23T18:45:00.999Z</time></trkpt><trkpt lat="42.07681608937024" lon="13.408852762385418"><ele>932.0</ele><time>2026-04-23T18:45:07.999Z</time></trkpt><trkpt lat="42.076882704769815" lon="13.408852302444924"><ele>935.5714285714287</ele><time>2026-04-23T18:45:14.999Z</time></trkpt><trkpt lat="42.07694460695574" lon="13.408869618087696"><ele>939.1428571428571</ele><time>2026-04-23T18:45:21.999Z</time></trkpt><trkpt lat="42.077014155590795" lon="13.408891093738694"><ele>942.7142857142858</ele><time>2026-04-23T18:45:29.998Z</time></trkpt><trkpt lat="42.07708369050955" lon="13.408906102557504"><ele>946.2857142857143</ele><time>2026-04-23T18:45:36.998Z</time></trkpt><trkpt lat="42.07715504898953" lon="13.408904632418984"><ele>949.8571428571429</ele><time>2026-04-23T18:45:43.999Z</time></trkpt><trkpt lat="42.0772268496044" lon="13.408920931869975"><ele>953.4285714285714</ele><time>2026-04-23T18:45:51.001Z</time></trkpt><trkpt lat="42.07729551375082" lon="13.408944519338453"><ele>957.0</ele><time>2026-04-23T18:45:59.001Z</time></trkpt><trkpt lat="42.077361618616116" lon="13.408960929688089"><ele>957.0</ele><time>2026-04-23T18:46:07Z</time></trkpt><trkpt lat="42.07742952084473" lon="13.40898801331889"><ele>957.0000000000001</ele><time>2026-04-23T18:46:14Z</time></trkpt><trkpt lat="42.07750051304832" lon="13.409007615527837"><ele>957.0</ele><time>2026-04-23T18:46:22Z</time></trkpt><trkpt lat="42.07756668636477" lon="13.40903034262272"><ele>957.0</ele><time>2026-04-23T18:46:29Z</time></trkpt><trkpt lat="42.07763645826905" lon="13.409052044448833"><ele>957.0000000000001</ele><time>2026-04-23T18:46:37Z</time></trkpt><trkpt lat="42.07769315925256" lon="13.409089749611953"><ele>957.0</ele><time>2026-04-23T18:46:43Z</time></trkpt><trkpt lat="42.07776106199494" lon="13.409115519833211"><ele>957.0</ele><time>2026-04-23T18:46:50Z</time></trkpt><trkpt lat="42.07782918330761" lon="13.409147505720444"><ele>957.4285714285714</ele><time>2026-04-23T18:46:57Z</time></trkpt><trkpt lat="42.07789741773321" lon="13.409180529678833"><ele>957.8571428571429</ele><time>2026-04-23T18:47:06Z</time></trkpt><trkpt lat="42.0779602477275" lon="13.409210770545036"><ele>958.2857142857143</ele><time>2026-04-23T18:47:13Z</time></trkpt><trkpt lat="42.078025510043375" lon="13.409245029980324"><ele>958.7142857142858</ele><time>2026-04-23T18:47:20Z</time></trkpt><trkpt lat="42.07807582704208" lon="13.409307530246489"><ele>959.1428571428571</ele><time>2026-04-23T18:47:44.999Z</time></trkpt><trkpt lat="42.07816706852861" lon="13.409291186914524"><ele>959.5714285714287</ele><time>2026-04-23T18:51:33Z</time></trkpt><trkpt lat="42.07823150096777" lon="13.409244106724879"><ele>960.0</ele><time>2026-04-23T18:51:37.999Z</time></trkpt><trkpt lat="42.07829887352248" lon="13.409233299018462"><ele>960.2857142857143</ele><time>2026-04-23T18:51:42.999Z</time></trkpt><trkpt lat="42.078364208143974" lon="13.409218965768053"><ele>960.5714285714284</ele><time>2026-04-23T18:51:47.999Z</time></trkpt><trkpt lat="42.07842514578819" lon="13.409190869639302"><ele>960.8571428571428</ele><time>2026-04-23T18:51:52.999Z</time></trkpt><trkpt lat="42.078493342263386" lon="13.409169594431406"><ele>961.1428571428571</ele><time>2026-04-23T18:51:57.999Z</time></trkpt><trkpt lat="42.07856334381389" lon="13.40915194559752"><ele>961.4285714285713</ele><time>2026-04-23T18:52:03.999Z</time></trkpt><trkpt lat="42.07863233995382" lon="13.409139145561577"><ele>961.7142857142856</ele><time>2026-04-23T18:52:10Z</time></trkpt><trkpt lat="42.07870246212253" lon="13.40912260215551"><ele>961.9999999999999</ele><time>2026-04-23T18:52:16Z</time></trkpt><trkpt lat="42.07877192683098" lon="13.409142405778825"><ele>961.9999999999999</ele><time>2026-04-23T18:52:23Z</time></trkpt><trkpt lat="42.07883127787866" lon="13.409204431467911"><ele>962.0</ele><time>2026-04-23T18:52:30Z</time></trkpt><trkpt lat="42.0788882999111" lon="13.40925492571245"><ele>961.9999999999999</ele><time>2026-04-23T18:52:36Z</time></trkpt><trkpt lat="42.07894812664924" lon="13.409292124051628"><ele>961.9999999999999</ele><time>2026-04-23T18:52:43Z</time></trkpt><trkpt lat="42.07899544992029" lon="13.40934901901847"><ele>962.0</ele><time>2026-04-23T18:52:51Z</time></trkpt><trkpt lat="42.07905079562107" lon="13.409395941275532"><ele>961.9999999999999</ele><time>2026-04-23T18:52:58Z</time></trkpt><trkpt lat="42.079108067135714" lon="13.409442019156234"><ele>961.9999999999999</ele><time>2026-04-23T18:53:05Z</time></trkpt><trkpt lat="42.0791606752837" lon="13.409490754191676"><ele>963.0000000000001</ele><time>2026-04-23T18:53:14Z</time></trkpt><trkpt lat="42.07928672030051" lon="13.409497544550463"><ele>964.0</ele><time>2026-04-23T18:54:06.999Z</time></trkpt><trkpt lat="42.07930853561146" lon="13.40957902339851"><ele>965.0</ele><time>2026-04-23T18:54:33Z</time></trkpt><trkpt lat="42.07936500236783" lon="13.409640679379438"><ele>966.0</ele><time>2026-04-23T18:54:40Z</time></trkpt><trkpt lat="42.079419231948314" lon="13.409703865036343"><ele>967.0000000000001</ele><time>2026-04-23T18:54:47Z</time></trkpt><trkpt lat="42.07947167226691" lon="13.40975179990915"><ele>968.0</ele><time>2026-04-23T18:54:55Z</time></trkpt><trkpt lat="42.07951904053742" lon="13.409814936168113"><ele>968.2857142857142</ele><time>2026-04-23T18:55:05Z</time></trkpt><trkpt lat="42.079563433185115" lon="13.409879509094312"><ele>968.5714285714284</ele><time>2026-04-23T18:55:21Z</time></trkpt><trkpt lat="42.07962200011944" lon="13.409922139875595"><ele>968.8571428571429</ele><time>2026-04-23T18:55:46.999Z</time></trkpt><trkpt lat="42.07967721216125" lon="13.409983134364255"><ele>969.1428571428571</ele><time>2026-04-23T18:55:54.999Z</time></trkpt><trkpt lat="42.07972913401441" lon="13.41003840269191"><ele>969.4285714285714</ele><time>2026-04-23T18:56:00.999Z</time></trkpt><trkpt lat="42.079784808849375" lon="13.410088347355531"><ele>969.7142857142858</ele><time>2026-04-23T18:56:07.999Z</time></trkpt><trkpt lat="42.07984074441633" lon="13.410146053584862"><ele>970.0000000000001</ele><time>2026-04-23T18:56:13.999Z</time></trkpt><trkpt lat="42.07989300322185" lon="13.41020245498088"><ele>969.2857142857144</ele><time>2026-04-23T18:56:20Z</time></trkpt><trkpt lat="42.07994326905571" lon="13.410260769914316"><ele>968.5714285714287</ele><time>2026-04-23T18:56:27Z</time></trkpt><trkpt lat="42.07999283821618" lon="13.410314892694615"><ele>967.8571428571429</ele><time>2026-04-23T18:56:34Z</time></trkpt><trkpt lat="42.08002660828675" lon="13.410391462246487"><ele>967.1428571428572</ele><time>2026-04-23T18:56:54Z</time></trkpt><trkpt lat="42.080078967299556" lon="13.410459073706825"><ele>966.4285714285716</ele><time>2026-04-23T18:57:03Z</time></trkpt><trkpt lat="42.080123759916916" lon="13.410534609164056"><ele>965.7142857142857</ele><time>2026-04-23T18:57:11Z</time></trkpt><trkpt lat="42.080108212377475" lon="13.410618969740772"><ele>965.0</ele><time>2026-04-23T18:57:18Z</time></trkpt><trkpt lat="42.08005433875979" lon="13.410667681082794"><ele>965.0</ele><time>2026-04-23T18:57:26Z</time></trkpt><trkpt lat="42.079997858827205" lon="13.410730387994743"><ele>965.0</ele><time>2026-04-23T18:57:33Z</time></trkpt><trkpt lat="42.07992963824504" lon="13.410808566273406"><ele>965.0</ele><time>2026-04-23T18:57:56.999Z</time></trkpt><trkpt lat="42.07987904160093" lon="13.41086029582728"><ele>965.0</ele><time>2026-04-23T18:58:02.999Z</time></trkpt><trkpt lat="42.07981740390626" lon="13.41092616696495"><ele>965.0</ele><time>2026-04-23T18:58:10.999Z</time></trkpt><trkpt lat="42.07975626633384" lon="13.41097484495247"><ele>965.0</ele><time>2026-04-23T18:58:17.999Z</time></trkpt><trkpt lat="42.07970813637298" lon="13.41103043085189"><ele>965.0</ele><time>2026-04-23T18:58:25Z</time></trkpt><trkpt lat="42.07966427520922" lon="13.411093142166589"><ele>965.0</ele><time>2026-04-23T18:58:32Z</time></trkpt><trkpt lat="42.07961782474253" lon="13.411151339304334"><ele>965.0</ele><time>2026-04-23T18:58:39Z</time></trkpt><trkpt lat="42.0795611255532" lon="13.411213112816624"><ele>965.0</ele><time>2026-04-23T18:58:46Z</time></trkpt><trkpt lat="42.079509689680755" lon="13.411267766884"><ele>965.0</ele><time>2026-04-23T18:58:54Z</time></trkpt><trkpt lat="42.07947914388679" lon="13.411177813930808"><ele>965.0</ele><time>2026-04-23T18:59:01Z</time></trkpt><trkpt lat="42.07942181800819" lon="13.411119050992623"><ele>965.0</ele><time>2026-04-23T18:59:09Z</time></trkpt><trkpt lat="42.07937834380276" lon="13.411044796955697"><ele>965.0</ele><time>2026-04-23T18:59:17Z</time></trkpt><trkpt lat="42.0793320252943" lon="13.410973747734987"><ele>965.0</ele><time>2026-04-23T18:59:24Z</time></trkpt><trkpt lat="42.07927945508866" lon="13.410911508376197"><ele>965.0</ele><time>2026-04-23T18:59:40Z</time></trkpt><trkpt lat="42.079237490797084" lon="13.410844477134804"><ele>965.0</ele><time>2026-04-23T18:59:47Z</time></trkpt><trkpt lat="42.0792080991903" lon="13.410634808238525"><ele>965.0</ele><time>2026-04-23T19:03:19Z</time></trkpt><trkpt lat="42.07927394033051" lon="13.410877669363856"><ele>965.0</ele><time>2026-04-23T19:03:21Z</time></trkpt><trkpt lat="42.07923674526178" lon="13.410959671530154"><ele>965.0</ele><time>2026-04-23T19:08:06.999Z</time></trkpt><trkpt lat="42.07920781421183" lon="13.411036015435256"><ele>965.0</ele><time>2026-04-23T19:08:12.999Z</time></trkpt><trkpt lat="42.079162702114346" lon="13.411116771860478"><ele>965.0</ele><time>2026-04-23T19:08:19.999Z</time></trkpt><trkpt lat="42.07910413242463" lon="13.411181103628707"><ele>965.0</ele><time>2026-04-23T19:08:26.999Z</time></trkpt><trkpt lat="42.07905190313509" lon="13.411235057902298"><ele>965.0</ele><time>2026-04-23T19:08:32.999Z</time></trkpt><trkpt lat="42.07899083742953" lon="13.411283574067165"><ele>965.0</ele><time>2026-04-23T19:08:38.999Z</time></trkpt><trkpt lat="42.0789249489781" lon="13.411307620218025"><ele>965.1428571428571</ele><time>2026-04-23T19:08:45.999Z</time></trkpt><trkpt lat="42.07885688572337" lon="13.411315537128031"><ele>965.2857142857143</ele><time>2026-04-23T19:08:53Z</time></trkpt><trkpt lat="42.07878798375391" lon="13.411349651335687"><ele>965.4285714285714</ele><time>2026-04-23T19:09:00Z</time></trkpt><trkpt lat="42.07872496199854" lon="13.411389321661215"><ele>965.5714285714286</ele><time>2026-04-23T19:09:06Z</time></trkpt><trkpt lat="42.07866049455265" lon="13.411427789241124"><ele>965.7142857142858</ele><time>2026-04-23T19:09:14Z</time></trkpt><trkpt lat="42.07859429643709" lon="13.41144690039006"><ele>965.8571428571429</ele><time>2026-04-23T19:09:21Z</time></trkpt><trkpt lat="42.078531171324585" lon="13.411479409085231"><ele>966.0</ele><time>2026-04-23T19:09:42Z</time></trkpt><trkpt lat="42.078460317494205" lon="13.411488588530766"><ele>966.0</ele><time>2026-04-23T19:09:50Z</time></trkpt><trkpt lat="42.07839821299638" lon="13.411523162783775"><ele>966.0</ele><time>2026-04-23T19:09:58Z</time></trkpt><trkpt lat="42.078335845710534" lon="13.411549098564928"><ele>966.0</ele><time>2026-04-23T19:10:06Z</time></trkpt><trkpt lat="42.07827951891338" lon="13.411595248898072"><ele>966.0</ele><time>2026-04-23T19:10:12.999Z</time></trkpt><trkpt lat="42.078219229734685" lon="13.411650026270426"><ele>966.0</ele><time>2026-04-23T19:10:20.999Z</time></trkpt><trkpt lat="42.078150302655814" lon="13.411679681053279"><ele>966.0</ele><time>2026-04-23T19:10:29.999Z</time></trkpt><trkpt lat="42.07809018662426" lon="13.411707671546692"><ele>966.0</ele><time>2026-04-23T19:10:37.999Z</time></trkpt><trkpt lat="42.078024349644224" lon="13.411745043035163"><ele>968.1428571428571</ele><time>2026-04-23T19:10:44.999Z</time></trkpt><trkpt lat="42.077983203705756" lon="13.411671454386141"><ele>970.2857142857142</ele><time>2026-04-23T19:11:00Z</time></trkpt><trkpt lat="42.07800141900913" lon="13.411578947433762"><ele>972.4285714285714</ele><time>2026-04-23T19:11:06Z</time></trkpt><trkpt lat="42.07802571258789" lon="13.41148872546494"><ele>974.5714285714286</ele><time>2026-04-23T19:11:13Z</time></trkpt><trkpt lat="42.07797296660453" lon="13.411439256217765"><ele>976.7142857142857</ele><time>2026-04-23T19:11:23Z</time></trkpt><trkpt lat="42.077932743232424" lon="13.411513457236785"><ele>978.8571428571429</ele><time>2026-04-23T19:11:30Z</time></trkpt><trkpt lat="42.077880835511195" lon="13.411576971958972"><ele>981.0</ele><time>2026-04-23T19:11:38Z</time></trkpt><trkpt lat="42.077830318013504" lon="13.411648044025592"><ele>981.0</ele><time>2026-04-23T19:11:45Z</time></trkpt><trkpt lat="42.07779003848523" lon="13.41171753101545"><ele>981.0</ele><time>2026-04-23T19:11:52Z</time></trkpt><trkpt lat="42.077738114406245" lon="13.411782939603713"><ele>981.0</ele><time>2026-04-23T19:12:01Z</time></trkpt><trkpt lat="42.07767895068687" lon="13.411839544263616"><ele>981.0</ele><time>2026-04-23T19:12:08Z</time></trkpt><trkpt lat="42.077620296564355" lon="13.41189420917888"><ele>981.0</ele><time>2026-04-23T19:12:13.999Z</time></trkpt><trkpt lat="42.07756816127786" lon="13.411950961112709"><ele>981.0</ele><time>2026-04-23T19:12:22.999Z</time></trkpt><trkpt lat="42.07752345945631" lon="13.412021245951683"><ele>981.0</ele><time>2026-04-23T19:12:28.999Z</time></trkpt><trkpt lat="42.0774733131451" lon="13.412073315700864"><ele>982.0</ele><time>2026-04-23T19:12:32.999Z</time></trkpt><trkpt lat="42.07740819407525" lon="13.412094968593696"><ele>983.0</ele><time>2026-04-23T19:12:37.999Z</time></trkpt><trkpt lat="42.07735543529996" lon="13.412143445617692"><ele>984.0</ele><time>2026-04-23T19:12:43.999Z</time></trkpt><trkpt lat="42.07730229269102" lon="13.412190536550334"><ele>985.0</ele><time>2026-04-23T19:12:49.999Z</time></trkpt><trkpt lat="42.077252387496706" lon="13.412258657862514"><ele>986.0</ele><time>2026-04-23T19:12:56.999Z</time></trkpt><trkpt lat="42.077192945852495" lon="13.412319434243251"><ele>987.0</ele><time>2026-04-23T19:13:12Z</time></trkpt><trkpt lat="42.07713539774733" lon="13.412381513953655"><ele>988.0</ele><time>2026-04-23T19:13:18Z</time></trkpt><trkpt lat="42.07706696198634" lon="13.412417169450354"><ele>986.0</ele><time>2026-04-23T19:13:27Z</time></trkpt><trkpt lat="42.07700526012763" lon="13.412475557618004"><ele>984.0</ele><time>2026-04-23T19:13:33Z</time></trkpt><trkpt lat="42.07694423608116" lon="13.41252884645755"><ele>982.0</ele><time>2026-04-23T19:13:39Z</time></trkpt><trkpt lat="42.07688987887231" lon="13.412576762679855"><ele>980.0</ele><time>2026-04-23T19:13:46Z</time></trkpt><trkpt lat="42.07693489068912" lon="13.412508525115193"><ele>978.0</ele><time>2026-04-23T19:14:12.999Z</time></trkpt><trkpt lat="42.07687312363856" lon="13.412538498471982"><ele>976.0</ele><time>2026-04-23T19:14:35.999Z</time></trkpt><trkpt lat="42.0768069058036" lon="13.412526037426252"><ele>974.0</ele><time>2026-04-23T19:14:49.999Z</time></trkpt><trkpt lat="42.07672630960606" lon="13.412555406245165"><ele>974.0</ele><time>2026-04-23T19:15:11Z</time></trkpt><trkpt lat="42.0766729669134" lon="13.412615792790016"><ele>974.0</ele><time>2026-04-23T19:15:17Z</time></trkpt><trkpt lat="42.076651055612366" lon="13.412696259611074"><ele>974.0</ele><time>2026-04-23T19:15:47Z</time></trkpt><trkpt lat="42.07666579004493" lon="13.412780471825988"><ele>974.0</ele><time>2026-04-23T19:15:52Z</time></trkpt><trkpt lat="42.07660873302755" lon="13.412831391979292"><ele>974.0</ele><time>2026-04-23T19:16:01Z</time></trkpt><trkpt lat="42.07655605920159" lon="13.41278045212886"><ele>974.0</ele><time>2026-04-23T19:16:05.999Z</time></trkpt><trkpt lat="42.07649618805198" lon="13.412746523739763"><ele>974.0</ele><time>2026-04-23T19:16:10.999Z</time></trkpt><trkpt lat="42.07644131848126" lon="13.412698563979264"><ele>973.0</ele><time>2026-04-23T19:16:17.999Z</time></trkpt><trkpt lat="42.076385740573116" lon="13.41263134608156"><ele>972.0</ele><time>2026-04-23T19:17:13.999Z</time></trkpt><trkpt lat="42.07632741145383" lon="13.412582564807643"><ele>971.0</ele><time>2026-04-23T19:17:19Z</time></trkpt><trkpt lat="42.07627472801232" lon="13.41253478696006"><ele>970.0</ele><time>2026-04-23T19:17:25Z</time></trkpt><trkpt lat="42.07622810660367" lon="13.412468931762783"><ele>969.0</ele><time>2026-04-23T19:17:31Z</time></trkpt><trkpt lat="42.07617995775268" lon="13.412410050591564"><ele>968.0</ele><time>2026-04-23T19:17:37Z</time></trkpt><trkpt lat="42.07613052054277" lon="13.412343545661354"><ele>967.0</ele><time>2026-04-23T19:17:43Z</time></trkpt><trkpt lat="42.07609481236734" lon="13.412264097720726"><ele>967.0</ele><time>2026-04-23T19:17:49Z</time></trkpt><trkpt lat="42.07604502351482" lon="13.412189885878206"><ele>967.0</ele><time>2026-04-23T19:17:56Z</time></trkpt><trkpt lat="42.07599609378874" lon="13.412135471371396"><ele>967.0</ele><time>2026-04-23T19:18:03Z</time></trkpt><trkpt lat="42.07593436838328" lon="13.412078007958927"><ele>967.0</ele><time>2026-04-23T19:18:10Z</time></trkpt><trkpt lat="42.07587536950884" lon="13.41204497319981"><ele>967.0</ele><time>2026-04-23T19:18:15.999Z</time></trkpt><trkpt lat="42.075810920886134" lon="13.412002599021761"><ele>967.0</ele><time>2026-04-23T19:19:31Z</time></trkpt><trkpt lat="42.075753156791656" lon="13.411942185357828"><ele>967.0</ele><time>2026-04-23T19:19:38Z</time></trkpt><trkpt lat="42.07569940075624" lon="13.411889157312864"><ele>968.0</ele><time>2026-04-23T19:19:44Z</time></trkpt><trkpt lat="42.07563733066869" lon="13.411852636884587"><ele>969.0</ele><time>2026-04-23T19:19:50Z</time></trkpt><trkpt lat="42.075574936811364" lon="13.411827891366029"><ele>970.0</ele><time>2026-04-23T19:19:56Z</time></trkpt><trkpt lat="42.075503697591756" lon="13.411818843160072"><ele>971.0</ele><time>2026-04-23T19:20:33.999Z</time></trkpt><trkpt lat="42.07543200185746" lon="13.411807569056927"><ele>972.0</ele><time>2026-04-23T19:20:40.999Z</time></trkpt><trkpt lat="42.075360727696356" lon="13.41179980344297"><ele>973.0</ele><time>2026-04-23T19:20:47.999Z</time></trkpt><trkpt lat="42.07529082437677" lon="13.411794148840032"><ele>974.0</ele><time>2026-04-23T19:20:54.999Z</time></trkpt><trkpt lat="42.07521664452041" lon="13.411801791779377"><ele>974.0</ele><time>2026-04-23T19:21:02.999Z</time></trkpt><trkpt lat="42.075146687992145" lon="13.411819387190727"><ele>974.0</ele><time>2026-04-23T19:21:07.999Z</time></trkpt><trkpt lat="42.07507933224456" lon="13.411783323242163"><ele>974.0</ele><time>2026-04-23T19:21:14.999Z</time></trkpt><trkpt lat="42.0750109438899" lon="13.411768348529222"><ele>974.0</ele><time>2026-04-23T19:21:20.999Z</time></trkpt><trkpt lat="42.07494775205043" lon="13.411733774969818"><ele>974.0</ele><time>2026-04-23T19:21:27Z</time></trkpt><trkpt lat="42.07488255113055" lon="13.411700091111912"><ele>974.0</ele><time>2026-04-23T19:21:33Z</time></trkpt><trkpt lat="42.07482636484734" lon="13.41163819117095"><ele>974.0</ele><time>2026-04-23T19:21:40Z</time></trkpt><trkpt lat="42.07478700162587" lon="13.411565914805038"><ele>971.7142857142858</ele><time>2026-04-23T19:21:45Z</time></trkpt><trkpt lat="42.07476071568059" lon="13.41147616091477"><ele>969.4285714285713</ele><time>2026-04-23T19:21:51Z</time></trkpt><trkpt lat="42.07469631086522" lon="13.411512976117336"><ele>967.1428571428571</ele><time>2026-04-23T19:22:45.999Z</time></trkpt><trkpt lat="42.074653638328485" lon="13.411582872830065"><ele>964.8571428571429</ele><time>2026-04-23T19:22:52.999Z</time></trkpt><trkpt lat="42.074614311949446" lon="13.411661250570695"><ele>962.5714285714287</ele><time>2026-04-23T19:22:59.999Z</time></trkpt><trkpt lat="42.07456945477398" lon="13.411722069655257"><ele>960.2857142857142</ele><time>2026-04-23T19:23:06.999Z</time></trkpt><trkpt lat="42.07452833767471" lon="13.411787638593138"><ele>958.0</ele><time>2026-04-23T19:23:15.999Z</time></trkpt><trkpt lat="42.074484383097435" lon="13.41185974373863"><ele>958.0</ele><time>2026-04-23T19:23:24.999Z</time></trkpt><trkpt lat="42.07442371053936" lon="13.411909924729091"><ele>958.0</ele><time>2026-04-23T19:23:38Z</time></trkpt><trkpt lat="42.07436062663248" lon="13.411935694632787"><ele>958.0</ele><time>2026-04-23T19:23:46Z</time></trkpt><trkpt lat="42.074307743490714" lon="13.41199055100934"><ele>958.0</ele><time>2026-04-23T19:23:54Z</time></trkpt><trkpt lat="42.0742432492687" lon="13.411996970052746"><ele>958.0</ele><time>2026-04-23T19:24:04Z</time></trkpt><trkpt lat="42.074175233677046" lon="13.412020534035577"><ele>958.0</ele><time>2026-04-23T19:24:13Z</time></trkpt><trkpt lat="42.07411067047753" lon="13.412050122404214"><ele>958.0</ele><time>2026-04-23T19:24:22Z</time></trkpt><trkpt lat="42.07404917082383" lon="13.412082023889617"><ele>955.5714285714286</ele><time>2026-04-23T19:24:30.999Z</time></trkpt><trkpt lat="42.07398477027193" lon="13.412112902536094"><ele>953.1428571428571</ele><time>2026-04-23T19:24:39.999Z</time></trkpt><trkpt lat="42.073930933675534" lon="13.412157263872587"><ele>950.7142857142857</ele><time>2026-04-23T19:24:46.999Z</time></trkpt><trkpt lat="42.0738694626103" lon="13.412188553397122"><ele>948.2857142857142</ele><time>2026-04-23T19:24:55.999Z</time></trkpt><trkpt lat="42.07380139806038" lon="13.412212090071494"><ele>945.8571428571429</ele><time>2026-04-23T19:25:05.999Z</time></trkpt><trkpt lat="42.07373906133323" lon="13.412245359374923"><ele>943.4285714285713</ele><time>2026-04-23T19:25:12.999Z</time></trkpt><trkpt lat="42.07366699337222" lon="13.41221873780986"><ele>940.9999999999999</ele><time>2026-04-23T19:25:19.999Z</time></trkpt><trkpt lat="42.07360422116375" lon="13.41220738618452"><ele>940.2857142857142</ele><time>2026-04-23T19:25:25.999Z</time></trkpt><trkpt lat="42.07353719115233" lon="13.412195226231287"><ele>939.5714285714286</ele><time>2026-04-23T19:25:32.999Z</time></trkpt><trkpt lat="42.073466893133514" lon="13.412206078608842"><ele>938.8571428571429</ele><time>2026-04-23T19:25:39Z</time></trkpt><trkpt lat="42.07340703342353" lon="13.412232699425646"><ele>938.1428571428571</ele><time>2026-04-23T19:25:45Z</time></trkpt><trkpt lat="42.07333536573661" lon="13.412257252085377"><ele>937.4285714285716</ele><time>2026-04-23T19:25:52Z</time></trkpt><trkpt lat="42.073268158792146" lon="13.412292634302666"><ele>936.7142857142858</ele><time>2026-04-23T19:26:00Z</time></trkpt><trkpt lat="42.07320324070593" lon="13.412316902315679"><ele>936.0</ele><time>2026-04-23T19:26:06Z</time></trkpt><trkpt lat="42.07313868822705" lon="13.412340378307793"><ele>934.7142857142858</ele><time>2026-04-23T19:26:13Z</time></trkpt><trkpt lat="42.07307332317061" lon="13.412364058401808"><ele>933.4285714285716</ele><time>2026-04-23T19:26:20Z</time></trkpt><trkpt lat="42.073013372691285" lon="13.412395614936505"><ele>932.1428571428571</ele><time>2026-04-23T19:26:25.999Z</time></trkpt><trkpt lat="42.07294396908654" lon="13.41242573453708"><ele>930.8571428571429</ele><time>2026-04-23T19:26:32.999Z</time></trkpt><trkpt lat="42.07288670293842" lon="13.412461664777254"><ele>929.5714285714286</ele><time>2026-04-23T19:26:38.999Z</time></trkpt><trkpt lat="42.07283219496681" lon="13.412504773809644"><ele>928.2857142857142</ele><time>2026-04-23T19:26:44.999Z</time></trkpt><trkpt lat="42.07275958453261" lon="13.412520408575823"><ele>926.9999999999999</ele><time>2026-04-23T19:26:51.999Z</time></trkpt><trkpt lat="42.07269060643315" lon="13.41252915929866"><ele>926.9999999999999</ele><time>2026-04-23T19:26:58.999Z</time></trkpt><trkpt lat="42.072622438005304" lon="13.41254234876453"><ele>927.0</ele><time>2026-04-23T19:27:05.999Z</time></trkpt><trkpt lat="42.07255201719231" lon="13.41253467040825"><ele>926.9999999999999</ele><time>2026-04-23T19:27:11.999Z</time></trkpt><trkpt lat="42.07248361177242" lon="13.412531739290253"><ele>926.9999999999999</ele><time>2026-04-23T19:27:17.999Z</time></trkpt><trkpt lat="42.072414315096786" lon="13.412516440939024"><ele>927.0</ele><time>2026-04-23T19:27:24.999Z</time></trkpt><trkpt lat="42.07234154304301" lon="13.412536743643573"><ele>926.9999999999999</ele><time>2026-04-23T19:27:36.999Z</time></trkpt><trkpt lat="42.07227545825401" lon="13.41252756273066"><ele>926.9999999999999</ele><time>2026-04-23T19:27:42.999Z</time></trkpt><trkpt lat="42.072206716994096" lon="13.41251147289379"><ele>925.4285714285713</ele><time>2026-04-23T19:27:49Z</time></trkpt><trkpt lat="42.072145373437166" lon="13.412492174495277"><ele>923.8571428571429</ele><time>2026-04-23T19:27:55Z</time></trkpt><trkpt lat="42.072085135536945" lon="13.412461860802777"><ele>922.2857142857142</ele><time>2026-04-23T19:28:01Z</time></trkpt><trkpt lat="42.07201617048713" lon="13.412449828060119"><ele>920.7142857142857</ele><time>2026-04-23T19:28:10Z</time></trkpt><trkpt lat="42.071953330156646" lon="13.412441622087064"><ele>919.1428571428571</ele><time>2026-04-23T19:28:16Z</time></trkpt><trkpt lat="42.07188787483524" lon="13.412430538909492"><ele>917.5714285714286</ele><time>2026-04-23T19:28:23Z</time></trkpt><trkpt lat="42.07182630999572" lon="13.412467425427531"><ele>916.0</ele><time>2026-04-23T19:28:30.999Z</time></trkpt><trkpt lat="42.071765783482135" lon="13.412439959001327"><ele>916.0</ele><time>2026-04-23T19:28:41.999Z</time></trkpt><trkpt lat="42.071723575790244" lon="13.41236286237216"><ele>916.0</ele><time>2026-04-23T19:28:51.999Z</time></trkpt><trkpt lat="42.07167881760311" lon="13.4122967747603"><ele>916.0</ele><time>2026-04-23T19:29:00.999Z</time></trkpt><trkpt lat="42.07161324262926" lon="13.412317492086675"><ele>916.0</ele><time>2026-04-23T19:29:07.999Z</time></trkpt><trkpt lat="42.07155738559958" lon="13.412386072318132"><ele>916.0</ele><time>2026-04-23T19:29:23.999Z</time></trkpt><trkpt lat="42.07150653681403" lon="13.412436559950086"><ele>916.0</ele><time>2026-04-23T19:29:29.999Z</time></trkpt><trkpt lat="42.071442029537444" lon="13.412480574769226"><ele>916.0</ele><time>2026-04-23T19:29:36.999Z</time></trkpt><trkpt lat="42.07137377888332" lon="13.412517537108302"><ele>914.0</ele><time>2026-04-23T19:29:42.999Z</time></trkpt><trkpt lat="42.07130230807292" lon="13.412510979652396"><ele>912.0</ele><time>2026-04-23T19:29:48.999Z</time></trkpt><trkpt lat="42.0712304213122" lon="13.412488872913103"><ele>910.0</ele><time>2026-04-23T19:29:58Z</time></trkpt><trkpt lat="42.071169237144666" lon="13.41245011032736"><ele>908.0</ele><time>2026-04-23T19:30:05Z</time></trkpt><trkpt lat="42.07109932442761" lon="13.412422029254968"><ele>906.0</ele><time>2026-04-23T19:30:12Z</time></trkpt><trkpt lat="42.07103825919895" lon="13.412401159244949"><ele>904.0</ele><time>2026-04-23T19:30:18Z</time></trkpt><trkpt lat="42.070970986148524" lon="13.412377561369938"><ele>902.0</ele><time>2026-04-23T19:30:25Z</time></trkpt><trkpt lat="42.07090678521895" lon="13.412341897021744"><ele>902.0000000000001</ele><time>2026-04-23T19:30:33Z</time></trkpt><trkpt lat="42.070841749317" lon="13.412297401763498"><ele>902.0</ele><time>2026-04-23T19:30:39.999Z</time></trkpt><trkpt lat="42.07077840877833" lon="13.412277869627546"><ele>902.0</ele><time>2026-04-23T19:30:49.999Z</time></trkpt><trkpt lat="42.07076887165163" lon="13.412192463737906"><ele>902.0</ele><time>2026-04-23T19:30:58.999Z</time></trkpt><trkpt lat="42.07066970957657" lon="13.412146394377174"><ele>902.0000000000001</ele><time>2026-04-23T19:31:34.999Z</time></trkpt><trkpt lat="42.07060289090322" lon="13.412076868745725"><ele>902.0</ele><time>2026-04-23T19:32:02Z</time></trkpt><trkpt lat="42.07055848720622" lon="13.412001621036838"><ele>899.2857142857142</ele><time>2026-04-23T19:32:09Z</time></trkpt><trkpt lat="42.0704912089414" lon="13.411993307026348"><ele>896.5714285714287</ele><time>2026-04-23T19:32:14Z</time></trkpt><trkpt lat="42.070434744052044" lon="13.41195167707355"><ele>893.8571428571429</ele><time>2026-04-23T19:32:20Z</time></trkpt><trkpt lat="42.070367122995776" lon="13.411940366875246"><ele>891.1428571428571</ele><time>2026-04-23T19:32:27Z</time></trkpt><trkpt lat="42.07029735014992" lon="13.411946969546886"><ele>888.4285714285713</ele><time>2026-04-23T19:32:33Z</time></trkpt><trkpt lat="42.07023781011243" lon="13.411910912628702"><ele>885.7142857142858</ele><time>2026-04-23T19:32:43Z</time></trkpt><trkpt lat="42.070176532687064" lon="13.411861668533602"><ele>883.0</ele><time>2026-04-23T19:32:51.999Z</time></trkpt><trkpt lat="42.070118288936726" lon="13.411828715521747"><ele>883.0</ele><time>2026-04-23T19:32:57.999Z</time></trkpt><trkpt lat="42.07005598903225" lon="13.411804102905766"><ele>883.0</ele><time>2026-04-23T19:33:03.999Z</time></trkpt><trkpt lat="42.069988663593115" lon="13.411813161917566"><ele>883.0</ele><time>2026-04-23T19:33:09.999Z</time></trkpt><trkpt lat="42.06992446332126" lon="13.411856808205592"><ele>883.0</ele><time>2026-04-23T19:33:16.999Z</time></trkpt><trkpt lat="42.069861450467826" lon="13.41189228305683"><ele>883.0</ele><time>2026-04-23T19:33:22.999Z</time></trkpt><trkpt lat="42.0697888525901" lon="13.4119213375813"><ele>883.0</ele><time>2026-04-23T19:33:28.999Z</time></trkpt><trkpt lat="42.06972494876782" lon="13.411951473124239"><ele>883.0</ele><time>2026-04-23T19:33:34.999Z</time></trkpt><trkpt lat="42.06966402105114" lon="13.411972960267187"><ele>883.0</ele><time>2026-04-23T19:33:39.999Z</time></trkpt><trkpt lat="42.06970713131023" lon="13.411895182778574"><ele>883.0</ele><time>2026-04-23T19:34:00.999Z</time></trkpt><trkpt lat="42.06976618308793" lon="13.411853601253044"><ele>883.0</ele><time>2026-04-23T19:34:07Z</time></trkpt><trkpt lat="42.0698183580231" lon="13.41179502200779"><ele>883.0</ele><time>2026-04-23T19:34:13Z</time></trkpt><trkpt lat="42.069876945556956" lon="13.411736219576657"><ele>883.0</ele><time>2026-04-23T19:34:19Z</time></trkpt><trkpt lat="42.069933677950836" lon="13.411684228862628"><ele>883.0</ele><time>2026-04-23T19:34:25Z</time></trkpt><trkpt lat="42.06998528944415" lon="13.411615370500225"><ele>883.0</ele><time>2026-04-23T19:34:31Z</time></trkpt><trkpt lat="42.07006215680054" lon="13.411516587908828"><ele>883.0</ele><time>2026-04-23T19:34:38Z</time></trkpt><trkpt lat="42.07007405308739" lon="13.411419313556745"><ele>883.0</ele><time>2026-04-23T19:34:44Z</time></trkpt><trkpt lat="42.070045529300316" lon="13.411330962146959"><ele>883.0</ele><time>2026-04-23T19:34:50Z</time></trkpt><trkpt lat="42.07000494142448" lon="13.41126078220351"><ele>883.0</ele><time>2026-04-23T19:35:00.999Z</time></trkpt><trkpt lat="42.06997688342335" lon="13.41117422076038"><ele>883.0</ele><time>2026-04-23T19:35:07.999Z</time></trkpt><trkpt lat="42.070024371606245" lon="13.411101735531041"><ele>883.0</ele><time>2026-04-23T19:35:12.999Z</time></trkpt><trkpt lat="42.070081656185316" lon="13.411059514421735"><ele>883.0</ele><time>2026-04-23T19:35:19.999Z</time></trkpt><trkpt lat="42.070115876297024" lon="13.410981434470907"><ele>881.5714285714286</ele><time>2026-04-23T19:35:25.999Z</time></trkpt><trkpt lat="42.07013565900255" lon="13.410900299996662"><ele>880.1428571428571</ele><time>2026-04-23T19:35:30.999Z</time></trkpt><trkpt lat="42.07014283901725" lon="13.410802890636383"><ele>878.7142857142857</ele><time>2026-04-23T19:35:36.999Z</time></trkpt><trkpt lat="42.07015810362526" lon="13.410711541063222"><ele>877.2857142857142</ele><time>2026-04-23T19:35:43.999Z</time></trkpt><trkpt lat="42.07020822923099" lon="13.410641347330996"><ele>875.8571428571429</ele><time>2026-04-23T19:35:50.999Z</time></trkpt><trkpt lat="42.070246991591276" lon="13.410565051703005"><ele>874.4285714285713</ele><time>2026-04-23T19:35:56.999Z</time></trkpt><trkpt lat="42.07028814347428" lon="13.41049216967577"><ele>873.0</ele><time>2026-04-23T19:36:02.999Z</time></trkpt><trkpt lat="42.07028678605513" lon="13.410406556780105"><ele>871.1428571428571</ele><time>2026-04-23T19:36:10Z</time></trkpt><trkpt lat="42.07034445008584" lon="13.410343232144415"><ele>869.2857142857142</ele><time>2026-04-23T19:36:16Z</time></trkpt><trkpt lat="42.07038262004666" lon="13.410265506463327"><ele>867.4285714285713</ele><time>2026-04-23T19:36:23Z</time></trkpt><trkpt lat="42.07042897140049" lon="13.410186224875977"><ele>865.5714285714286</ele><time>2026-04-23T19:36:29Z</time></trkpt><trkpt lat="42.070486234356835" lon="13.410149815854421"><ele>863.7142857142858</ele><time>2026-04-23T19:36:34Z</time></trkpt><trkpt lat="42.07055361805496" lon="13.410137440499431"><ele>861.8571428571428</ele><time>2026-04-23T19:36:40Z</time></trkpt><trkpt lat="42.07062204267327" lon="13.41010865200541"><ele>860.0</ele><time>2026-04-23T19:36:46Z</time></trkpt><trkpt lat="42.07068438374154" lon="13.410065617293986"><ele>860.0</ele><time>2026-04-23T19:36:52Z</time></trkpt><trkpt lat="42.07075268558841" lon="13.410043537735772"><ele>860.0</ele><time>2026-04-23T19:36:57.999Z</time></trkpt><trkpt lat="42.070797700543146" lon="13.409974157547774"><ele>860.0</ele><time>2026-04-23T19:37:03.999Z</time></trkpt><trkpt lat="42.07084061829867" lon="13.409896025157279"><ele>860.0</ele><time>2026-04-23T19:37:10.999Z</time></trkpt><trkpt lat="42.070899792993465" lon="13.409847387821637"><ele>860.0</ele><time>2026-04-23T19:37:17.999Z</time></trkpt><trkpt lat="42.07095897549233" lon="13.409814148951744"><ele>860.0</ele><time>2026-04-23T19:37:23.999Z</time></trkpt><trkpt lat="42.071008478610516" lon="13.409758359938538"><ele>860.0</ele><time>2026-04-23T19:37:28.999Z</time></trkpt><trkpt lat="42.071070656828155" lon="13.409708949126394"><ele>860.4285714285714</ele><time>2026-04-23T19:37:34.999Z</time></trkpt><trkpt lat="42.07112334609903" lon="13.409644751032738"><ele>860.8571428571429</ele><time>2026-04-23T19:37:40.999Z</time></trkpt><trkpt lat="42.071159019854015" lon="13.409573453243457"><ele>861.2857142857143</ele><time>2026-04-23T19:37:47.999Z</time></trkpt><trkpt lat="42.071141539687126" lon="13.40948781746664"><ele>861.7142857142858</ele><time>2026-04-23T19:37:54.999Z</time></trkpt><trkpt lat="42.07111279247859" lon="13.409412057360237"><ele>862.1428571428571</ele><time>2026-04-23T19:38:00.999Z</time></trkpt><trkpt lat="42.071071371301535" lon="13.409332569540897"><ele>862.5714285714287</ele><time>2026-04-23T19:38:07.999Z</time></trkpt><trkpt lat="42.071043093925866" lon="13.409252438366183"><ele>863.0</ele><time>2026-04-23T19:38:13.999Z</time></trkpt><trkpt lat="42.07100458609759" lon="13.409176375030778"><ele>863.0000000000001</ele><time>2026-04-23T19:38:22Z</time></trkpt><trkpt lat="42.070988624258156" lon="13.40908927980953"><ele>863.0</ele><time>2026-04-23T19:38:28Z</time></trkpt><trkpt lat="42.07100566925125" lon="13.408995070213576"><ele>863.0</ele><time>2026-04-23T19:38:34Z</time></trkpt><trkpt lat="42.07096524817571" lon="13.408929753021527"><ele>863.0</ele><time>2026-04-23T19:38:40Z</time></trkpt><trkpt lat="42.07090671087593" lon="13.40888522569636"><ele>863.0</ele><time>2026-04-23T19:38:49Z</time></trkpt><trkpt lat="42.070844997278236" lon="13.408859752449517"><ele>863.0000000000001</ele><time>2026-04-23T19:38:55.999Z</time></trkpt><trkpt lat="42.07081059267363" lon="13.408939717365286"><ele>863.0</ele><time>2026-04-23T19:39:03.999Z</time></trkpt><trkpt lat="42.07078730364861" lon="13.409028244640929"><ele>861.2857142857143</ele><time>2026-04-23T19:39:09.999Z</time></trkpt><trkpt lat="42.070718154613" lon="13.409051617771492"><ele>859.5714285714286</ele><time>2026-04-23T19:39:15.999Z</time></trkpt><trkpt lat="42.070638944017034" lon="13.409044102014645"><ele>857.8571428571429</ele><time>2026-04-23T19:39:22.999Z</time></trkpt><trkpt lat="42.070569494728254" lon="13.40904481154371"><ele>856.1428571428571</ele><time>2026-04-23T19:40:14.999Z</time></trkpt><trkpt lat="42.07051872479452" lon="13.409109687804186"><ele>854.4285714285714</ele><time>2026-04-23T19:40:22Z</time></trkpt><trkpt lat="42.07046933680752" lon="13.409169062555788"><ele>852.7142857142858</ele><time>2026-04-23T19:40:28Z</time></trkpt><trkpt lat="42.07040968500031" lon="13.4091255036287"><ele>851.0</ele><time>2026-04-23T19:40:34Z</time></trkpt><trkpt lat="42.0703570522354" lon="13.40906195330423"><ele>851.0</ele><time>2026-04-23T19:40:40Z</time></trkpt><trkpt lat="42.07030974353471" lon="13.409000743344683"><ele>851.0</ele><time>2026-04-23T19:40:45Z</time></trkpt><trkpt lat="42.070255966837145" lon="13.408949060327732"><ele>851.0</ele><time>2026-04-23T19:40:51Z</time></trkpt><trkpt lat="42.0702013244899" lon="13.40889231209703"><ele>851.0</ele><time>2026-04-23T19:40:57Z</time></trkpt><trkpt lat="42.070143801551296" lon="13.408846782038653"><ele>851.0</ele><time>2026-04-23T19:41:02.999Z</time></trkpt><trkpt lat="42.07007353073218" lon="13.408812115349388"><ele>851.0</ele><time>2026-04-23T19:41:08.999Z</time></trkpt><trkpt lat="42.07001834434651" lon="13.408770294775309"><ele>851.0</ele><time>2026-04-23T19:41:13.999Z</time></trkpt><trkpt lat="42.06996514669566" lon="13.40872467489026"><ele>849.0</ele><time>2026-04-23T19:41:18.999Z</time></trkpt><trkpt lat="42.06990088026971" lon="13.408678016106279"><ele>847.0</ele><time>2026-04-23T19:41:24.999Z</time></trkpt><trkpt lat="42.06985178374363" lon="13.408610000650075"><ele>845.0</ele><time>2026-04-23T19:41:30.999Z</time></trkpt><trkpt lat="42.069795549758794" lon="13.408546744539715"><ele>843.0</ele><time>2026-04-23T19:41:36.999Z</time></trkpt><trkpt lat="42.06974666794859" lon="13.408472792057667"><ele>841.0</ele><time>2026-04-23T19:41:42.999Z</time></trkpt><trkpt lat="42.06969926539516" lon="13.408400802295551"><ele>839.0</ele><time>2026-04-23T19:41:48.999Z</time></trkpt><trkpt lat="42.06965507505083" lon="13.408332026161409"><ele>837.0</ele><time>2026-04-23T19:41:54.999Z</time></trkpt><trkpt lat="42.06961507143864" lon="13.40825749949306"><ele>837.0</ele><time>2026-04-23T19:42:00.999Z</time></trkpt><trkpt lat="42.06955245465434" lon="13.408239187722742"><ele>837.0</ele><time>2026-04-23T19:42:12.999Z</time></trkpt><trkpt lat="42.069483864789184" lon="13.408236734324014"><ele>837.0</ele><time>2026-04-23T19:42:20.999Z</time></trkpt><trkpt lat="42.069419196536096" lon="13.408271605300063"><ele>837.0</ele><time>2026-04-23T19:42:28Z</time></trkpt><trkpt lat="42.06935571138403" lon="13.40828630592616"><ele>837.0</ele><time>2026-04-23T19:42:34Z</time></trkpt><trkpt lat="42.06928946207267" lon="13.408265839902459"><ele>837.0</ele><time>2026-04-23T19:42:40Z</time></trkpt><trkpt lat="42.069221548609455" lon="13.40822918987686"><ele>837.0</ele><time>2026-04-23T19:42:46Z</time></trkpt><trkpt lat="42.06915539958906" lon="13.408195691669745"><ele>835.2857142857143</ele><time>2026-04-23T19:42:52Z</time></trkpt><trkpt lat="42.069091129124246" lon="13.408177570237171"><ele>833.5714285714287</ele><time>2026-04-23T19:42:58Z</time></trkpt><trkpt lat="42.06902373421334" lon="13.408139250153598"><ele>831.8571428571429</ele><time>2026-04-23T19:43:04.999Z</time></trkpt><trkpt lat="42.06895825473729" lon="13.40810363122675"><ele>830.1428571428571</ele><time>2026-04-23T19:43:10.999Z</time></trkpt><trkpt lat="42.068896735631306" lon="13.408061753465221"><ele>828.4285714285714</ele><time>2026-04-23T19:43:16.999Z</time></trkpt><trkpt lat="42.068845499776394" lon="13.40800092593472"><ele>826.7142857142857</ele><time>2026-04-23T19:43:22.999Z</time></trkpt><trkpt lat="42.06878276715985" lon="13.407954557369058"><ele>825.0</ele><time>2026-04-23T19:43:28.999Z</time></trkpt><trkpt lat="42.06872083167501" lon="13.407906946627348"><ele>825.0</ele><time>2026-04-23T19:43:34.999Z</time></trkpt><trkpt lat="42.068658259370274" lon="13.40785125702552"><ele>825.0</ele><time>2026-04-23T19:43:40.999Z</time></trkpt><trkpt lat="42.068599786794714" lon="13.407796106150492"><ele>825.0</ele><time>2026-04-23T19:43:46.999Z</time></trkpt><trkpt lat="42.068542199202746" lon="13.407745981723771"><ele>825.0</ele><time>2026-04-23T19:43:52.999Z</time></trkpt><trkpt lat="42.06849140343693" lon="13.407693051897352"><ele>825.0</ele><time>2026-04-23T19:43:57.999Z</time></trkpt><trkpt lat="42.0684329813524" lon="13.407627756538455"><ele>825.0</ele><time>2026-04-23T19:44:03.999Z</time></trkpt><trkpt lat="42.06838226039437" lon="13.40755942794339"><ele>825.0</ele><time>2026-04-23T19:44:09.999Z</time></trkpt><trkpt lat="42.06833564090026" lon="13.407491142616468"><ele>825.0</ele><time>2026-04-23T19:44:14.999Z</time></trkpt><trkpt lat="42.06830701528084" lon="13.407401206715353"><ele>825.0</ele><time>2026-04-23T19:44:20.999Z</time></trkpt><trkpt lat="42.068270773336415" lon="13.407318581231529"><ele>825.0</ele><time>2026-04-23T19:44:26.999Z</time></trkpt><trkpt lat="42.06823579253773" lon="13.407236431906195"><ele>825.0</ele><time>2026-04-23T19:44:32Z</time></trkpt><trkpt lat="42.06819879970053" lon="13.407145905571301"><ele>825.0</ele><time>2026-04-23T19:44:38Z</time></trkpt><trkpt lat="42.068177785827835" lon="13.407055340421186"><ele>825.0</ele><time>2026-04-23T19:44:44Z</time></trkpt><trkpt lat="42.06815197235939" lon="13.406977242744283"><ele>825.0</ele><time>2026-04-23T19:44:51Z</time></trkpt><trkpt lat="42.06812104686981" lon="13.406897246750928"><ele>821.8571428571428</ele><time>2026-04-23T19:44:59.999Z</time></trkpt><trkpt lat="42.06807143623739" lon="13.40683098131252"><ele>818.7142857142858</ele><time>2026-04-23T19:45:05.999Z</time></trkpt><trkpt lat="42.06803565392803" lon="13.40676119784869"><ele>815.5714285714286</ele><time>2026-04-23T19:45:12.999Z</time></trkpt><trkpt lat="42.06803344400294" lon="13.406668717605223"><ele>812.4285714285713</ele><time>2026-04-23T19:45:19.999Z</time></trkpt><trkpt lat="42.06802933899001" lon="13.406575761949403"><ele>809.2857142857142</ele><time>2026-04-23T19:45:26.999Z</time></trkpt><trkpt lat="42.067984415109954" lon="13.406503889711656"><ele>806.1428571428571</ele><time>2026-04-23T19:45:32.999Z</time></trkpt><trkpt lat="42.067962973984585" lon="13.406421860727884"><ele>803.0</ele><time>2026-04-23T19:45:39.999Z</time></trkpt><trkpt lat="42.06794933865372" lon="13.406335209638064"><ele>802.9999999999999</ele><time>2026-04-23T19:45:46.999Z</time></trkpt><trkpt lat="42.067930957248095" lon="13.406248606105033"><ele>803.0</ele><time>2026-04-23T19:45:53.999Z</time></trkpt><trkpt lat="42.06790657543845" lon="13.406155384115635"><ele>803.0</ele><time>2026-04-23T19:46:00.999Z</time></trkpt><trkpt lat="42.067850998405525" lon="13.4060933069834"><ele>803.0</ele><time>2026-04-23T19:46:07.999Z</time></trkpt><trkpt lat="42.06778529252072" lon="13.40611788942702"><ele>803.0</ele><time>2026-04-23T19:46:14.999Z</time></trkpt><trkpt lat="42.06776851682683" lon="13.406213595440045"><ele>802.9999999999999</ele><time>2026-04-23T19:46:19.999Z</time></trkpt><trkpt lat="42.067717968904915" lon="13.406277256907474"><ele>803.0</ele><time>2026-04-23T19:46:25.999Z</time></trkpt><trkpt lat="42.06768148688558" lon="13.406355681296832"><ele>802.9999999999999</ele><time>2026-04-23T19:46:31.998Z</time></trkpt><trkpt lat="42.06766107691304" lon="13.406449148652559"><ele>803.0</ele><time>2026-04-23T19:46:39Z</time></trkpt><trkpt lat="42.06761386147369" lon="13.406520266068704"><ele>803.0</ele><time>2026-04-23T19:46:45Z</time></trkpt><trkpt lat="42.06757813194651" lon="13.406601597629514"><ele>803.0</ele><time>2026-04-23T19:46:50Z</time></trkpt><trkpt lat="42.067539319432704" lon="13.4066754611136"><ele>803.0</ele><time>2026-04-23T19:46:55Z</time></trkpt><trkpt lat="42.06751231998911" lon="13.406758626001622"><ele>802.9999999999999</ele><time>2026-04-23T19:46:59.999Z</time></trkpt><trkpt lat="42.06748624221767" lon="13.406851238578708"><ele>803.0</ele><time>2026-04-23T19:47:05.999Z</time></trkpt><trkpt lat="42.06745827560442" lon="13.406933952267746"><ele>802.9999999999999</ele><time>2026-04-23T19:47:11.999Z</time></trkpt><trkpt lat="42.06745986276075" lon="13.407022119119913"><ele>803.0</ele><time>2026-04-23T19:47:16.999Z</time></trkpt><trkpt lat="42.067427310775095" lon="13.407105758897755"><ele>803.0</ele><time>2026-04-23T19:47:21.999Z</time></trkpt><trkpt lat="42.067408773119226" lon="13.407204213144762"><ele>803.0</ele><time>2026-04-23T19:47:27.999Z</time></trkpt><trkpt lat="42.06738490230082" lon="13.407293413552019"><ele>803.0</ele><time>2026-04-23T19:47:33.999Z</time></trkpt><trkpt lat="42.067346640124455" lon="13.407370333845073"><ele>802.9999999999999</ele><time>2026-04-23T19:47:38.999Z</time></trkpt><trkpt lat="42.0673390263763" lon="13.407461424744014"><ele>803.0</ele><time>2026-04-23T19:47:44.999Z</time></trkpt><trkpt lat="42.06732690802897" lon="13.407550889266073"><ele>800.4285714285713</ele><time>2026-04-23T19:47:50.999Z</time></trkpt><trkpt lat="42.06730580659173" lon="13.407636635061946"><ele>797.8571428571429</ele><time>2026-04-23T19:47:55.999Z</time></trkpt><trkpt lat="42.06728726855597" lon="13.407723005985083"><ele>795.2857142857142</ele><time>2026-04-23T19:48:01.999Z</time></trkpt><trkpt lat="42.067271323643695" lon="13.407809112439184"><ele>792.7142857142857</ele><time>2026-04-23T19:48:06.999Z</time></trkpt><trkpt lat="42.067247384538156" lon="13.407894618678512"><ele>790.1428571428571</ele><time>2026-04-23T19:48:11.999Z</time></trkpt><trkpt lat="42.06722164726426" lon="13.407981724912323"><ele>787.5714285714286</ele><time>2026-04-23T19:48:16.999Z</time></trkpt><trkpt lat="42.06720803217965" lon="13.408068324585654"><ele>785.0</ele><time>2026-04-23T19:48:21.999Z</time></trkpt><trkpt lat="42.06717086323788" lon="13.40814262475567"><ele>784.8571428571429</ele><time>2026-04-23T19:48:26.999Z</time></trkpt><trkpt lat="42.06714573531598" lon="13.408224476905295"><ele>784.7142857142857</ele><time>2026-04-23T19:48:31.999Z</time></trkpt><trkpt lat="42.0671202758446" lon="13.40830863359324"><ele>784.5714285714286</ele><time>2026-04-23T19:48:36.998Z</time></trkpt><trkpt lat="42.06706902731882" lon="13.408358625518405"><ele>784.4285714285714</ele><time>2026-04-23T19:48:41.998Z</time></trkpt><trkpt lat="42.066997787597636" lon="13.408365022500513"><ele>784.2857142857142</ele><time>2026-04-23T19:48:46.999Z</time></trkpt><trkpt lat="42.06693359076602" lon="13.408314827825533"><ele>784.1428571428571</ele><time>2026-04-23T19:48:53Z</time></trkpt><trkpt lat="42.06687491726756" lon="13.408251420664822"><ele>784.0</ele><time>2026-04-23T19:48:58.999Z</time></trkpt><trkpt lat="42.066813477084594" lon="13.408205379674765"><ele>784.0</ele><time>2026-04-23T19:49:04.999Z</time></trkpt><trkpt lat="42.0667443162562" lon="13.408173597431798"><ele>784.0</ele><time>2026-04-23T19:49:10.999Z</time></trkpt><trkpt lat="42.06668043111807" lon="13.408216187879514"><ele>784.0</ele><time>2026-04-23T19:49:16.999Z</time></trkpt><trkpt lat="42.06661329380102" lon="13.408227779097128"><ele>784.0</ele><time>2026-04-23T19:49:23.999Z</time></trkpt><trkpt lat="42.06657214617978" lon="13.408156565314407"><ele>774.0</ele><time>2026-04-23T19:50:00.999Z</time></trkpt><trkpt lat="42.0665389753476" lon="13.408072340240857"><ele>774.0</ele><time>2026-04-23T19:56:44Z</time></trkpt><trkpt lat="42.066609452093815" lon="13.408049673399683"><ele>774.0</ele><time>2026-04-23T19:57:03.999Z</time></trkpt></trkseg></trk></gpx>